Time;durP1;ratioP1;P1;durP2;ratioP2;P2;SDS_P1;SDS_P2;PMS_P1;PMS_P2;Temp;Humidity;BMP_temperature;BMP_pressure;BME280_temperature;BME280_humidity;BME280_pressure;Samples;Min_cycle;Max_cycle;Signal;HPM_P1;HPM_P2
2022/01/01 00:02:05;;;;;;;16.63;10.75;;;230.50;2252.80;;;;;;5041555;28;20171;-62
2022/01/01 00:04:31;;;;;;;14.48;10.85;;;230.50;2252.80;;;;;;5043214;28;20024;-61
2022/01/01 00:06:57;;;;;;;15.07;8.95;;;230.50;2252.80;;;;;;5033420;28;20033;-62
2022/01/01 00:09:22;;;;;;;13.23;8.40;;;230.50;2252.80;;;;;;5051781;28;20099;-61
2022/01/01 00:11:48;;;;;;;15.40;10.30;;;230.40;2252.80;;;;;;5053254;28;20096;-62
2022/01/01 00:14:14;;;;;;;16.40;9.93;;;205.70;2252.80;;;;;;5053243;28;20021;-61
2022/01/01 00:16:39;;;;;;;13.10;8.85;;;205.70;2252.80;;;;;;5053373;28;20516;-61
2022/01/01 00:19:05;;;;;;;13.65;9.50;;;205.70;2252.80;;;;;;5035345;28;20559;-62
2022/01/01 00:21:31;;;;;;;14.02;8.73;;;205.70;2252.80;;;;;;5037075;28;20032;-62
2022/01/01 00:23:57;;;;;;;16.58;11.23;;;205.60;2252.80;;;;;;5053099;28;20062;-62
2022/01/01 00:26:23;;;;;;;21.45;15.32;;;205.60;2252.80;;;;;;5054386;28;20040;-62
2022/01/01 00:28:49;;;;;;;19.58;13.27;;;205.60;2252.80;;;;;;5053881;28;20520;-62
2022/01/01 00:31:14;;;;;;;14.48;10.68;;;205.60;2252.80;;;;;;5054457;28;20476;-62
2022/01/01 00:33:40;;;;;;;22.13;19.30;;;205.50;2252.80;;;;;;5053145;28;20040;-62
2022/01/01 00:36:06;;;;;;;49.90;36.97;;;205.60;2252.80;;;;;;5052892;28;20025;-61
2022/01/01 00:38:32;;;;;;;498.88;351.00;;;205.60;2252.80;;;;;;5053156;28;20457;-61
2022/01/01 00:40:58;;;;;;;503.42;377.55;;;205.40;2252.80;;;;;;5052773;28;20033;-61
2022/01/01 00:43:26;;;;;;;514.45;361.17;;;205.20;2252.80;;;;;;5052971;28;20115;-61
2022/01/01 00:45:52;;;;;;;477.65;342.58;;;205.20;2252.80;;;;;;5052986;28;20047;-62
2022/01/01 00:48:18;;;;;;;465.95;331.15;;;205.20;2252.80;;;;;;5052603;28;20487;-61
2022/01/01 00:50:44;;;;;;;468.48;320.65;;;205.10;2252.80;;;;;;5052485;28;20463;-61
2022/01/01 00:53:10;;;;;;;364.67;218.10;;;205.00;2252.80;;;;;;5052709;28;20033;-62
2022/01/01 00:55:36;;;;;;;327.80;195.13;;;205.10;2252.80;;;;;;5052417;28;20425;-61
2022/01/01 00:58:01;;;;;;;252.80;152.27;;;205.20;2252.80;;;;;;5051884;28;20060;-61
2022/01/01 01:00:28;;;;;;;149.80;88.53;;;205.20;2252.80;;;;;;5052191;28;20043;-62
2022/01/01 01:02:53;;;;;;;279.10;138.70;;;205.40;2252.80;;;;;;5052383;28;20036;-61
2022/01/01 01:05:19;;;;;;;123.20;65.13;;;205.50;2252.80;;;;;;5052444;28;20422;-61
2022/01/01 01:07:45;;;;;;;53.00;27.17;;;205.50;2252.80;;;;;;5052108;28;20056;-62
2022/01/01 01:10:12;;;;;;;28.35;16.00;;;205.50;2252.80;;;;;;5052246;28;20021;-62
2022/01/01 01:12:47;;;;;;;20.90;11.43;;;205.40;2252.80;;;;;;5052346;28;20029;-61
2022/01/01 01:15:18;;;;;;;24.17;13.30;;;205.30;2252.80;;;;;;5052158;28;20029;-62
2022/01/01 01:17:45;;;;;;;39.90;22.95;;;205.30;2252.80;;;;;;5051975;28;20071;-61
2022/01/01 01:20:12;;;;;;;26.17;15.15;;;205.30;2252.80;;;;;;5052018;28;20115;-61
2022/01/01 01:22:38;;;;;;;22.65;14.63;;;205.30;2252.80;;;;;;5052079;28;20155;-61
2022/01/01 01:25:04;;;;;;;31.25;19.30;;;205.20;2252.80;;;;;;5052045;28;20132;-62
2022/01/01 01:27:30;;;;;;;257.80;119.68;;;205.20;2252.80;;;;;;5051853;28;20486;-61
2022/01/01 01:29:58;;;;;;;234.70;110.95;;;205.30;2252.80;;;;;;5051675;28;20040;-62
2022/01/01 01:32:24;;;;;;;234.35;106.47;;;205.40;2252.80;;;;;;5051773;28;20021;-61
2022/01/01 01:34:50;;;;;;;214.63;102.03;;;205.50;2252.80;;;;;;5051918;28;20038;-61
2022/01/01 01:37:16;;;;;;;221.35;99.93;;;205.60;2252.80;;;;;;5051627;28;20532;-62
2022/01/01 01:39:41;;;;;;;142.43;62.45;;;205.60;2252.80;;;;;;5051849;28;20029;-61
2022/01/01 01:42:07;;;;;;;38.58;20.90;;;205.70;2252.80;;;;;;5051684;28;20036;-61
2022/01/01 01:44:41;;;;;;;37.30;21.30;;;205.70;2252.80;;;;;;5051603;28;20029;-61
2022/01/01 01:47:14;;;;;;;116.38;72.20;;;205.70;2252.80;;;;;;5051490;28;20463;-62
2022/01/01 01:49:41;;;;;;;94.20;57.63;;;205.70;2252.80;;;;;;5051650;28;20031;-61
2022/01/01 01:52:08;;;;;;;84.93;54.05;;;205.70;2252.80;;;;;;5051608;28;20422;-62
2022/01/01 01:54:34;;;;;;;193.98;116.65;;;205.70;2252.80;;;;;;5051598;28;20056;-62
2022/01/01 01:57:00;;;;;;;178.98;105.82;;;205.70;2252.80;;;;;;5051463;28;20554;-62
2022/01/01 01:59:26;;;;;;;169.23;99.28;;;205.70;2252.80;;;;;;5051381;28;20109;-62
2022/01/01 02:01:53;;;;;;;107.93;61.53;;;230.40;2252.80;;;;;;5051129;28;20048;-61
2022/01/01 02:04:19;;;;;;;85.70;48.10;;;230.40;2252.80;;;;;;5051393;28;20464;-62
2022/01/01 02:06:45;;;;;;;54.00;35.33;;;230.40;2252.80;;;;;;5051017;28;20021;-62
2022/01/01 02:09:12;;;;;;;55.50;35.28;;;205.70;2252.80;;;;;;5050833;28;20143;-61
2022/01/01 02:11:41;;;;;;;24.83;14.07;;;205.70;2252.80;;;;;;5050140;28;20033;-61
2022/01/01 02:14:21;;;;;;;22.52;13.60;;;205.60;2252.80;;;;;;5051029;28;20039;-62
2022/01/01 02:19:26;;;;;;;29.83;18.05;;;205.40;2252.80;;;;;;5050905;28;20025;-62
2022/01/01 02:21:59;;;;;;;43.33;26.73;;;205.40;2252.80;;;;;;5050851;28;20021;-61
2022/01/01 02:24:25;;;;;;;131.02;68.28;;;205.30;2252.80;;;;;;5050614;28;20032;-62
2022/01/01 02:26:52;;;;;;;150.40;83.22;;;205.30;2252.80;;;;;;5050748;28;20029;-62
2022/01/01 02:29:18;;;;;;;127.18;70.43;;;205.30;2252.80;;;;;;5050442;28;20043;-61
2022/01/01 02:31:44;;;;;;;158.68;89.25;;;205.40;2252.80;;;;;;5050359;28;20029;-62
2022/01/01 02:34:11;;;;;;;98.80;62.95;;;205.40;2252.80;;;;;;5050865;28;20029;-61
2022/01/01 02:36:42;;;;;;;51.10;30.83;;;205.40;2252.80;;;;;;5050786;28;20020;-62
2022/01/01 02:39:13;;;;;;;28.58;20.02;;;205.30;2252.80;;;;;;5050579;28;20025;-62
2022/01/01 02:41:39;;;;;;;36.78;21.60;;;205.20;2252.80;;;;;;5050686;28;20029;-61
2022/01/01 02:44:06;;;;;;;14.02;9.43;;;205.20;2252.80;;;;;;5050580;28;20036;-61
2022/01/01 02:46:33;;;;;;;15.15;8.55;;;205.20;2252.80;;;;;;5050535;28;20029;-62
2022/01/01 02:48:59;;;;;;;21.88;13.95;;;205.10;2252.80;;;;;;5050520;28;20032;-61
2022/01/01 02:51:25;;;;;;;52.38;34.75;;;204.90;2252.80;;;;;;5050465;28;20021;-61
2022/01/01 02:53:51;;;;;;;52.35;33.72;;;204.90;2252.80;;;;;;5050601;28;20027;-61
2022/01/01 02:56:17;;;;;;;43.22;27.45;;;205.00;2252.80;;;;;;5050014;28;20025;-61
2022/01/01 02:58:43;;;;;;;44.13;28.52;;;205.10;2252.80;;;;;;5050467;28;20021;-61
2022/01/01 03:01:09;;;;;;;14.00;8.82;;;205.10;2252.80;;;;;;5050102;28;20049;-61
2022/01/01 03:03:36;;;;;;;10.63;6.70;;;205.10;2252.80;;;;;;5050205;28;20033;-61
2022/01/01 03:06:02;;;;;;;14.23;5.55;;;205.10;2252.80;;;;;;5050268;28;20021;-61
2022/01/01 03:08:28;;;;;;;8.00;5.45;;;205.00;2252.80;;;;;;5049931;28;20036;-61
2022/01/01 03:10:53;;;;;;;12.10;7.57;;;204.90;2252.80;;;;;;5050179;28;20375;-62
2022/01/01 03:13:19;;;;;;;9.13;5.65;;;204.90;2252.80;;;;;;5050164;28;20489;-61
2022/01/01 03:15:45;;;;;;;16.42;9.60;;;204.80;2252.80;;;;;;5049773;28;20476;-62
2022/01/01 03:18:11;;;;;;;11.05;6.18;;;180.00;2252.80;;;;;;5050301;28;20048;-61
2022/01/01 03:20:37;;;;;;;5.35;3.80;;;180.10;2252.80;;;;;;5050069;28;20392;-62
2022/01/01 03:23:03;;;;;;;6.35;3.70;;;205.00;2252.80;;;;;;5049892;28;20138;-61
2022/01/01 03:25:29;;;;;;;5.82;2.85;;;205.20;2252.80;;;;;;5050035;28;20025;-61
2022/01/01 03:27:55;;;;;;;7.40;4.47;;;205.40;2252.80;;;;;;5049665;28;20525;-61
2022/01/01 03:30:21;;;;;;;7.95;3.33;;;205.40;2252.80;;;;;;5049835;28;20059;-62
2022/01/01 03:32:47;;;;;;;6.22;3.67;;;205.40;2252.80;;;;;;5049722;28;20475;-62
2022/01/01 03:35:13;;;;;;;6.60;3.25;;;205.30;2252.80;;;;;;5050007;28;20025;-61
2022/01/01 03:37:38;;;;;;;6.95;4.38;;;205.20;2252.80;;;;;;5050215;28;20021;-62
2022/01/01 03:40:05;;;;;;;7.35;4.30;;;205.20;2252.80;;;;;;5049749;28;20025;-62
2022/01/01 03:42:31;;;;;;;9.68;5.97;;;205.00;2252.80;;;;;;5049985;28;20087;-61
2022/01/01 03:44:57;;;;;;;11.48;4.97;;;204.90;2252.80;;;;;;5049641;28;20036;-62
2022/01/01 03:47:22;;;;;;;8.75;5.50;;;204.80;2252.80;;;;;;5049853;28;20021;-62
2022/01/01 03:49:49;;;;;;;7.70;3.78;;;204.80;2252.80;;;;;;5049937;28;20025;-62
2022/01/01 03:52:15;;;;;;;9.43;4.88;;;204.80;2252.80;;;;;;5049883;28;20034;-61
2022/01/01 03:54:41;;;;;;;9.98;5.97;;;180.00;2252.80;;;;;;5049888;28;20021;-61
2022/01/01 03:57:07;;;;;;;11.95;6.30;;;179.90;2252.80;;;;;;5049722;28;20036;-61
2022/01/01 03:59:34;;;;;;;7.07;3.08;;;179.80;2252.80;;;;;;5049704;28;20482;-61
2022/01/01 04:02:00;;;;;;;5.20;2.10;;;179.90;2252.80;;;;;;5049443;28;20103;-62
2022/01/01 04:04:26;;;;;;;8.65;6.75;;;204.90;2252.80;;;;;;5049500;28;20468;-61
2022/01/01 04:06:53;;;;;;;5.82;3.28;;;205.00;2252.80;;;;;;5049699;28;20033;-61
2022/01/01 04:09:19;;;;;;;6.97;3.80;;;205.10;2252.80;;;;;;5049728;28;20442;-61
2022/01/01 04:11:45;;;;;;;4.50;2.97;;;205.10;2252.80;;;;;;5049501;28;20017;-61
2022/01/01 04:14:13;;;;;;;5.88;4.10;;;205.10;2252.80;;;;;;5049624;28;20021;-62
2022/01/01 04:16:39;;;;;;;21.15;18.92;;;205.30;2252.80;;;;;;5049661;28;20379;-61
2022/01/01 04:19:05;;;;;;;7.38;5.40;;;205.40;2252.80;;;;;;5049449;28;20024;-61
2022/01/01 04:21:31;;;;;;;5.55;5.00;;;205.40;2252.80;;;;;;5049693;28;20028;-61
2022/01/01 04:23:57;;;;;;;5.82;3.90;;;205.30;2252.80;;;;;;5049209;28;20029;-61
2022/01/01 04:26:24;;;;;;;4.40;2.40;;;205.30;2252.80;;;;;;5049576;28;20028;-62
2022/01/01 04:28:50;;;;;;;4.53;2.67;;;205.30;2252.80;;;;;;5049272;28;20478;-62
2022/01/01 04:31:16;;;;;;;6.43;3.85;;;205.30;2252.80;;;;;;5049039;28;20025;-61
2022/01/01 04:33:43;;;;;;;4.80;3.13;;;205.40;2252.80;;;;;;5050589;28;20033;-61
2022/01/01 04:36:09;;;;;;;5.35;3.17;;;205.40;2252.80;;;;;;5053079;28;20144;-62
2022/01/01 04:38:40;;;;;;;6.18;3.55;;;205.50;2252.80;;;;;;5053519;28;20493;-62
2022/01/01 04:41:08;;;;;;;7.45;4.45;;;205.60;2252.80;;;;;;5053400;28;20367;-62
2022/01/01 04:43:34;;;;;;;6.40;3.13;;;205.70;2252.80;;;;;;5053583;28;20424;-62
2022/01/01 04:46:00;;;;;;;5.38;3.45;;;230.40;2252.80;;;;;;5052938;28;20023;-61
2022/01/01 04:48:26;;;;;;;3.90;2.38;;;230.50;2252.80;;;;;;5052454;28;20115;-61
2022/01/01 04:50:52;;;;;;;3.15;2.15;;;230.50;2252.80;;;;;;5052854;28;20074;-61
2022/01/01 04:53:18;;;;;;;5.18;2.50;;;230.50;2252.80;;;;;;5052407;28;20033;-62
2022/01/01 04:55:48;;;;;;;6.80;5.60;;;230.50;2252.80;;;;;;5052507;28;20017;-61
2022/01/01 04:58:15;;;;;;;6.35;2.85;;;230.50;2252.80;;;;;;5052384;28;20033;-61
2022/01/01 05:00:40;;;;;;;5.78;3.53;;;205.70;2252.80;;;;;;5052312;28;20056;-61
2022/01/01 05:03:06;;;;;;;14.18;8.43;;;205.70;2252.80;;;;;;5052420;28;20509;-61
2022/01/01 05:05:32;;;;;;;8.07;6.18;;;205.40;2252.80;;;;;;5052671;28;20373;-61
2022/01/01 05:07:58;;;;;;;12.27;5.10;;;205.50;2252.80;;;;;;5052103;28;20474;-61
2022/01/01 05:10:24;;;;;;;13.85;8.85;;;205.40;2252.80;;;;;;5052790;28;20013;-61
2022/01/01 05:12:53;;;;;;;7.95;4.43;;;205.50;2252.80;;;;;;5052372;28;20029;-61
2022/01/01 05:15:19;;;;;;;9.07;5.07;;;205.50;2252.80;;;;;;5052287;28;20025;-61
2022/01/01 05:17:45;;;;;;;8.70;3.25;;;205.50;2252.80;;;;;;5052041;28;20108;-61
2022/01/01 05:20:11;;;;;;;6.20;3.55;;;205.40;2252.80;;;;;;5052096;28;20103;-61
2022/01/01 05:22:37;;;;;;;6.05;2.40;;;205.40;2252.80;;;;;;5052162;28;20041;-61
2022/01/01 05:25:05;;;;;;;5.57;3.15;;;205.50;2252.80;;;;;;5052032;28;20459;-61
2022/01/01 05:27:36;;;;;;;5.63;2.70;;;205.50;2252.80;;;;;;5051919;28;20162;-61
2022/01/01 05:30:06;;;;;;;5.38;3.03;;;205.60;2252.80;;;;;;5051624;28;20036;-61
2022/01/01 05:32:32;;;;;;;7.28;4.40;;;205.60;2252.80;;;;;;5051891;28;20090;-61
2022/01/01 05:34:59;;;;;;;9.38;5.90;;;205.60;2252.80;;;;;;5051630;28;20104;-61
2022/01/01 05:37:25;;;;;;;13.85;7.78;;;205.50;2252.80;;;;;;5051589;28;20027;-61
2022/01/01 05:39:50;;;;;;;22.10;14.23;;;205.40;2252.80;;;;;;5051826;28;20095;-61
2022/01/01 05:42:16;;;;;;;25.30;15.13;;;205.40;2252.80;;;;;;5051515;28;20061;-61
2022/01/01 05:44:42;;;;;;;17.63;11.70;;;205.40;2252.80;;;;;;5051559;28;20029;-61
2022/01/01 05:47:08;;;;;;;11.80;6.85;;;205.40;2252.80;;;;;;5051681;28;20514;-61
2022/01/01 05:49:34;;;;;;;8.65;4.97;;;205.50;2252.80;;;;;;5051633;28;20037;-61
2022/01/01 05:52:00;;;;;;;17.30;7.90;;;205.60;2252.80;;;;;;5051884;28;20108;-60
2022/01/01 05:54:26;;;;;;;8.82;4.00;;;205.70;2252.80;;;;;;5051370;28;20422;-61
2022/01/01 05:56:51;;;;;;;36.92;17.58;;;230.40;2252.80;;;;;;5051485;28;20052;-61
2022/01/01 05:59:17;;;;;;;59.67;27.88;;;205.70;2252.80;;;;;;5051206;28;20032;-61
2022/01/01 06:01:43;;;;;;;11.50;5.82;;;205.50;2252.80;;;;;;5050979;28;20132;-61
2022/01/01 06:04:08;;;;;;;10.00;6.53;;;205.10;2252.80;;;;;;5051229;28;20365;-61
2022/01/01 06:06:34;;;;;;;9.50;6.35;;;205.50;2252.80;;;;;;5051189;28;20021;-61
2022/01/01 06:09:00;;;;;;;14.00;7.85;;;205.50;2252.80;;;;;;5051315;28;20045;-61
2022/01/01 06:11:26;;;;;;;22.10;14.27;;;205.50;2252.80;;;;;;5051274;28;20563;-61
2022/01/01 06:13:52;;;;;;;20.70;12.95;;;205.70;2252.80;;;;;;5051239;28;20061;-61
2022/01/01 06:16:17;;;;;;;16.58;8.60;;;205.60;2252.80;;;;;;5050857;28;20041;-61
2022/01/01 06:18:43;;;;;;;12.75;6.80;;;205.50;2252.80;;;;;;5051373;28;20458;-61
2022/01/01 06:21:09;;;;;;;16.33;7.07;;;205.40;2252.80;;;;;;5051062;28;20423;-61
2022/01/01 06:23:39;;;;;;;11.82;7.13;;;205.40;2252.80;;;;;;5050804;28;20032;-61
2022/01/01 06:26:06;;;;;;;12.15;7.03;;;205.50;2252.80;;;;;;5050834;28;20104;-61
2022/01/01 06:28:32;;;;;;;13.38;8.15;;;205.50;2252.80;;;;;;5050787;28;20041;-61
2022/01/01 06:30:58;;;;;;;9.90;5.25;;;205.40;2252.80;;;;;;5050288;28;20040;-61
2022/01/01 06:33:23;;;;;;;7.97;4.50;;;205.50;2252.80;;;;;;5050892;28;20045;-61
2022/01/01 06:35:49;;;;;;;9.82;5.38;;;205.60;2252.80;;;;;;5040943;28;20026;-61
2022/01/01 06:38:16;;;;;;;9.65;5.18;;;205.70;2252.80;;;;;;5036556;28;20072;-62
2022/01/01 06:40:43;;;;;;;7.93;4.53;;;230.50;2252.80;;;;;;5037693;28;20021;-61
2022/01/01 06:43:11;;;;;;;11.90;10.70;;;230.80;2252.80;;;;;;5038436;28;20025;-61
2022/01/01 06:45:37;;;;;;;12.25;9.45;;;230.90;2252.80;;;;;;5038822;28;20029;-61
2022/01/01 06:48:03;;;;;;;8.55;4.95;;;231.00;2252.80;;;;;;5040068;28;20474;-61
2022/01/01 06:50:29;;;;;;;7.65;5.57;;;231.10;2252.80;;;;;;5038666;28;20035;-60
2022/01/01 06:52:55;;;;;;;8.85;4.72;;;231.30;2252.80;;;;;;5038898;28;20028;-62
2022/01/01 06:55:21;;;;;;;8.48;5.85;;;256.00;2252.80;;;;;;5035130;28;20029;-61
2022/01/01 06:57:47;;;;;;;11.98;4.45;;;256.10;2252.80;;;;;;5029895;28;20037;-61
2022/01/01 07:00:13;;;;;;;13.07;6.53;;;256.10;2252.80;;;;;;5030522;28;20025;-60
2022/01/01 07:02:45;;;;;;;10.73;5.47;;;256.20;2252.80;;;;;;5030257;28;20045;-61
2022/01/01 07:05:12;;;;;;;6.53;4.40;;;256.20;2252.80;;;;;;5030329;28;20468;-61
2022/01/01 07:07:38;;;;;;;16.48;9.43;;;256.30;2252.80;;;;;;5030331;28;20083;-61
2022/01/01 07:10:05;;;;;;;12.95;8.23;;;256.30;2252.80;;;;;;5030437;28;20766;-61
2022/01/01 07:12:31;;;;;;;22.40;14.48;;;256.30;2252.80;;;;;;5032814;28;20033;-61
2022/01/01 07:14:57;;;;;;;10.32;7.95;;;256.20;2252.80;;;;;;5036678;28;20472;-61
2022/01/01 07:17:23;;;;;;;17.35;12.98;;;256.10;2252.80;;;;;;5029913;28;20033;-61
2022/01/01 07:19:48;;;;;;;36.40;23.95;;;256.10;2252.80;;;;;;5029886;28;20497;-61
2022/01/01 07:22:14;;;;;;;14.68;7.65;;;256.20;2252.80;;;;;;5029841;28;20038;-61
2022/01/01 07:24:40;;;;;;;18.00;12.00;;;256.10;2252.80;;;;;;5028708;28;20042;-61
2022/01/01 07:27:06;;;;;;;14.77;10.00;;;256.00;2252.80;;;;;;5030293;28;20163;-62
2022/01/01 07:29:32;;;;;;;12.18;8.98;;;231.30;2252.80;;;;;;5034892;28;20119;-61
2022/01/01 07:31:57;;;;;;;16.58;11.70;;;231.30;2252.80;;;;;;5039278;28;20494;-62
2022/01/01 07:34:23;;;;;;;16.63;14.43;;;231.30;2252.80;;;;;;5043111;28;20060;-61
2022/01/01 07:36:49;;;;;;;23.85;16.00;;;256.40;2252.80;;;;;;5048810;28;20017;-61
2022/01/01 07:39:15;;;;;;;20.83;16.75;;;256.70;2252.80;;;;;;5049212;28;20037;-61
2022/01/01 07:41:42;;;;;;;14.88;9.30;;;281.90;2278.40;;;;;;5049606;28;20375;-61
2022/01/01 07:44:09;;;;;;;12.90;9.27;;;282.40;2278.40;;;;;;5048994;28;20040;-61
2022/01/01 07:46:35;;;;;;;33.13;24.90;;;307.50;2304.00;;;;;;5049246;28;20486;-62
2022/01/01 07:49:01;;;;;;;15.95;8.98;;;307.80;2304.00;;;;;;5049079;28;20475;-62
2022/01/01 07:51:27;;;;;;;18.98;15.55;;;307.90;2304.00;;;;;;5049097;28;20060;-62
2022/01/01 07:53:52;;;;;;;13.27;9.45;;;308.10;2304.00;;;;;;5048248;28;20040;-62
2022/01/01 07:56:18;;;;;;;178.05;116.63;;;332.80;2329.60;;;;;;5049125;28;20025;-62
2022/01/01 07:58:44;;;;;;;15.82;11.07;;;308.10;2304.00;;;;;;5046688;28;20030;-62
2022/01/01 08:01:10;;;;;;;12.75;7.90;;;332.80;2329.60;;;;;;5029296;28;20048;-62
2022/01/01 08:03:35;;;;;;;8.32;6.28;;;332.80;2329.60;;;;;;5029690;28;20038;-62
2022/01/01 08:06:01;;;;;;;21.58;16.17;;;332.80;2329.60;;;;;;5029843;28;20087;-61
2022/01/01 08:08:27;;;;;;;14.85;9.95;;;308.10;2304.00;;;;;;5032080;28;20136;-62
2022/01/01 08:10:52;;;;;;;95.88;60.88;;;308.10;2304.00;;;;;;5033384;28;20040;-62
2022/01/01 08:13:23;;;;;;;31.77;18.90;;;308.10;2304.00;;;;;;5033333;28;20029;-61
2022/01/01 08:15:50;;;;;;;98.63;56.85;;;308.10;2304.00;;;;;;5033404;28;20026;-62
2022/01/01 08:18:16;;;;;;;39.92;30.88;;;308.00;2304.00;;;;;;5033157;28;20030;-62
2022/01/01 08:20:42;;;;;;;15.00;12.10;;;308.00;2304.00;;;;;;5033387;28;20037;-62
2022/01/01 08:23:08;;;;;;;22.05;17.40;;;307.90;2304.00;;;;;;5033113;28;20476;-62
2022/01/01 08:25:34;;;;;;;13.15;9.40;;;308.00;2304.00;;;;;;5033282;28;20453;-61
2022/01/01 08:27:59;;;;;;;16.50;10.23;;;308.10;2304.00;;;;;;5032992;28;20047;-61
2022/01/01 08:30:25;;;;;;;29.95;21.05;;;358.70;2329.60;;;;;;5032796;28;20181;-63
2022/01/01 08:32:51;;;;;;;19.23;16.23;;;359.30;2329.60;;;;;;5033101;28;20387;-62
2022/01/01 08:35:17;;;;;;;15.30;11.63;;;384.00;2329.60;;;;;;5032693;28;20032;-62
2022/01/01 08:37:42;;;;;;;14.93;10.68;;;359.10;2329.60;;;;;;5032946;28;20036;-62
2022/01/01 08:40:09;;;;;;;14.65;10.88;;;358.70;2329.60;;;;;;5032778;28;20029;-62
2022/01/01 08:42:35;;;;;;;13.25;9.30;;;358.50;2329.60;;;;;;5032806;28;20030;-62
2022/01/01 08:45:01;;;;;;;26.13;17.73;;;358.50;2329.60;;;;;;5032816;28;20036;-62
2022/01/01 08:47:27;;;;;;;25.83;18.70;;;384.40;2329.60;;;;;;5032672;28;20041;-62
2022/01/01 08:49:55;;;;;;;13.43;9.10;;;410.00;2304.00;;;;;;5032947;28;20036;-63
2022/01/01 08:52:22;;;;;;;10.88;9.20;;;410.20;2252.80;;;;;;5032774;28;20057;-63
2022/01/01 08:54:49;;;;;;;17.55;13.90;;;410.30;2201.60;;;;;;5032722;28;20034;-63
2022/01/01 08:57:16;;;;;;;12.93;10.60;;;410.00;2227.20;;;;;;5032484;28;20021;-62
2022/01/01 08:59:41;;;;;;;17.70;15.98;;;409.80;2252.80;;;;;;5032812;28;20152;-63
2022/01/01 09:02:08;;;;;;;14.40;12.23;;;409.70;2329.60;;;;;;5032215;28;20136;-61
2022/01/01 09:04:34;;;;;;;12.68;10.05;;;409.60;2355.20;;;;;;5032765;28;20040;-61
2022/01/01 09:06:59;;;;;;;10.80;7.65;;;384.80;2329.60;;;;;;5032457;28;20033;-61
2022/01/01 09:09:25;;;;;;;9.32;6.45;;;384.40;2329.60;;;;;;5032301;28;20092;-62
2022/01/01 09:11:51;;;;;;;7.70;6.07;;;384.30;2329.60;;;;;;5032546;28;20492;-62
2022/01/01 09:14:17;;;;;;;9.07;7.03;;;384.20;2329.60;;;;;;5032263;28;20091;-62
2022/01/01 09:16:42;;;;;;;10.10;6.28;;;384.10;2329.60;;;;;;5032364;28;20419;-62
2022/01/01 09:19:08;;;;;;;10.15;6.38;;;384.10;2329.60;;;;;;5031512;28;20026;-62
2022/01/01 09:21:34;;;;;;;9.55;6.90;;;384.10;2329.60;;;;;;5032210;28;20053;-62
2022/01/01 09:24:00;;;;;;;14.32;10.35;;;384.10;2329.60;;;;;;5032164;28;20029;-61
2022/01/01 09:26:26;;;;;;;14.52;6.85;;;384.00;2329.60;;;;;;5034038;28;20087;-62
2022/01/01 09:28:52;;;;;;;9.65;7.07;;;384.00;2329.60;;;;;;5048939;28;20033;-64
2022/01/01 09:31:18;;;;;;;8.18;5.95;;;359.30;2329.60;;;;;;5051704;28;20029;-62
2022/01/01 09:33:44;;;;;;;12.80;8.60;;;359.30;2329.60;;;;;;5051837;28;20116;-63
2022/01/01 09:36:12;;;;;;;9.60;6.32;;;359.30;2329.60;;;;;;5051885;28;20096;-63
2022/01/01 09:38:38;;;;;;;16.08;9.00;;;384.00;2329.60;;;;;;5051960;28;20033;-61
2022/01/01 09:41:04;;;;;;;7.78;5.28;;;359.30;2329.60;;;;;;5051644;28;20076;-62
2022/01/01 09:43:32;;;;;;;6.50;4.80;;;359.30;2329.60;;;;;;5051607;28;20422;-62
2022/01/01 09:45:59;;;;;;;6.35;5.20;;;384.00;2329.60;;;;;;5051472;28;20029;-62
2022/01/01 09:48:27;;;;;;;10.73;5.70;;;384.10;2329.60;;;;;;5051151;28;20040;-63
2022/01/01 09:50:56;;;;;;;15.48;9.98;;;384.10;2329.60;;;;;;5051828;28;20051;-61
2022/01/01 09:53:24;;;;;;;8.75;5.65;;;384.20;2329.60;;;;;;5051661;28;20035;-61
2022/01/01 09:55:54;;;;;;;8.63;6.03;;;384.20;2329.60;;;;;;5051528;28;20031;-61
2022/01/01 09:58:25;;;;;;;11.65;7.70;;;384.30;2329.60;;;;;;5051335;28;20017;-61
2022/01/01 10:00:52;;;;;;;7.85;5.97;;;384.30;2329.60;;;;;;5051345;28;20127;-63
2022/01/01 10:03:29;;;;;;;10.27;7.35;;;384.20;2329.60;;;;;;5051179;28;20037;-62
2022/01/01 10:06:02;;;;;;;10.18;7.20;;;384.20;2329.60;;;;;;5051112;28;20021;-64
2022/01/01 10:08:28;;;;;;;11.52;9.70;;;384.20;2329.60;;;;;;5051030;28;20393;-64
2022/01/01 10:10:54;;;;;;;10.85;8.60;;;384.30;2329.60;;;;;;5051301;28;20025;-64
2022/01/01 10:13:37;;;;;;;11.55;8.63;;;384.20;2329.60;;;;;;5051125;28;20052;-64
2022/01/01 10:16:06;;;;;;;8.73;5.78;;;384.20;2329.60;;;;;;5051153;28;20025;-62
2022/01/01 10:18:35;;;;;;;8.57;5.53;;;384.20;2329.60;;;;;;5051238;28;20107;-56
2022/01/01 10:21:15;;;;;;;6.78;4.97;;;384.20;2329.60;;;;;;5051145;28;20095;-57
2022/01/01 10:23:42;;;;;;;13.60;9.68;;;384.20;2329.60;;;;;;5050996;28;20024;-57
2022/01/01 10:29:08;;;;;;;8.15;6.20;;;384.40;2329.60;;;;;;5050922;28;20394;-57
2022/01/01 10:31:34;;;;;;;141.00;125.78;;;384.50;2329.60;;;;;;5049600;28;20033;-59
2022/01/01 10:34:01;;;;;;;9.43;6.82;;;384.60;2329.60;;;;;;5050534;28;20064;-58
2022/01/01 10:36:30;;;;;;;28.70;26.30;;;384.70;2329.60;;;;;;5050560;28;20033;-59
2022/01/01 10:39:10;;;;;;;9.70;6.90;;;384.80;2329.60;;;;;;5048616;28;20025;-56
2022/01/01 10:42:00;;;;;;;22.58;16.60;;;409.60;2355.20;;;;;;5049090;28;20021;-58
2022/01/01 10:44:29;;;;;;;8.68;5.07;;;409.60;2355.20;;;;;;5048848;28;20078;-59
2022/01/01 10:46:56;;;;;;;11.60;6.97;;;409.70;2355.20;;;;;;5047407;28;20390;-59
2022/01/01 10:49:34;;;;;;;9.52;6.70;;;409.80;2355.20;;;;;;5048638;28;20033;-57
2022/01/01 10:52:12;;;;;;;8.60;4.88;;;409.80;2355.20;;;;;;5048659;28;20371;-58
2022/01/01 10:54:38;;;;;;;7.22;5.10;;;409.80;2355.20;;;;;;5048791;28;20033;-57
2022/01/01 10:57:08;;;;;;;9.77;5.63;;;409.90;2355.20;;;;;;5048695;28;20083;-57
2022/01/01 10:59:38;;;;;;;10.05;5.78;;;409.90;2355.20;;;;;;5048605;28;20052;-57
2022/01/01 11:02:07;;;;;;;14.27;11.75;;;409.70;2355.20;;;;;;5048335;28;20051;-57
2022/01/01 11:04:36;;;;;;;8.25;5.85;;;410.30;2355.20;;;;;;5048322;28;20021;-59
2022/01/01 11:07:03;;;;;;;7.70;5.78;;;410.50;2355.20;;;;;;5048680;28;20048;-58
2022/01/01 11:09:31;;;;;;;8.70;6.10;;;435.20;2329.60;;;;;;5048464;28;20044;-58
2022/01/01 11:12:02;;;;;;;9.05;6.90;;;435.30;2355.20;;;;;;5048400;28;20091;-59
2022/01/01 11:14:32;;;;;;;11.10;7.68;;;435.40;2355.20;;;;;;5048412;28;20033;-58
2022/01/01 11:16:59;;;;;;;6.60;4.45;;;435.40;2355.20;;;;;;5048605;28;20033;-58
2022/01/01 11:19:26;;;;;;;7.60;6.05;;;435.50;2329.60;;;;;;5048074;28;20024;-59
2022/01/01 11:21:53;;;;;;;11.75;9.07;;;435.30;2329.60;;;;;;5048789;28;20032;-57
2022/01/01 11:24:22;;;;;;;11.23;7.40;;;435.20;2329.60;;;;;;5048558;28;20036;-58
2022/01/01 11:26:49;;;;;;;7.07;4.65;;;410.50;2355.20;;;;;;5048231;28;20541;-60
2022/01/01 11:29:15;;;;;;;5.90;4.45;;;410.40;2355.20;;;;;;5048144;28;20138;-59
2022/01/01 11:31:42;;;;;;;8.30;4.30;;;410.30;2355.20;;;;;;5047820;28;20065;-58
2022/01/01 11:34:09;;;;;;;6.50;5.10;;;410.40;2355.20;;;;;;5048236;28;20114;-57
2022/01/01 11:36:35;;;;;;;15.40;11.48;;;410.50;2355.20;;;;;;5048379;28;20025;-59
2022/01/01 11:39:12;;;;;;;9.15;6.60;;;410.50;2355.20;;;;;;5048296;28;20032;-59
2022/01/01 11:41:43;;;;;;;14.00;11.35;;;410.50;2355.20;;;;;;5048154;28;20039;-58
2022/01/01 11:44:31;;;;;;;14.63;10.13;;;410.50;2355.20;;;;;;5051459;28;20095;-56
2022/01/01 11:47:19;;;;;;;18.63;16.83;;;410.50;2355.20;;;;;;5052185;28;20035;-58
2022/01/01 11:49:45;;;;;;;12.40;7.20;;;435.20;2355.20;;;;;;5052105;28;20058;-58
2022/01/01 11:52:13;;;;;;;19.52;13.52;;;410.50;2355.20;;;;;;5052235;28;20079;-58
2022/01/01 11:54:41;;;;;;;12.15;8.65;;;410.30;2355.20;;;;;;5051911;28;20024;-58
2022/01/01 11:57:13;;;;;;;12.18;4.55;;;410.30;2355.20;;;;;;5051352;28;20032;-57
2022/01/01 11:59:38;;;;;;;9.05;6.20;;;410.20;2355.20;;;;;;5052175;28;20048;-58
2022/01/01 12:02:19;;;;;;;12.60;7.90;;;410.20;2355.20;;;;;;5051673;28;20495;-59
2022/01/01 12:04:50;;;;;;;7.75;5.25;;;410.20;2355.20;;;;;;5051908;28;20033;-58
2022/01/01 12:07:16;;;;;;;13.98;10.90;;;410.30;2355.20;;;;;;5051978;28;20033;-58
2022/01/01 12:10:08;;;;;;;11.32;5.80;;;410.20;2355.20;;;;;;5051516;28;20372;-58
2022/01/01 12:12:43;;;;;;;9.77;6.28;;;410.20;2355.20;;;;;;5051693;28;20082;-58